Myra Eckstein — WDF9473 — position and weather

sailwx.info

Track history (hours):
 
Tides and Currents Weather Stations Pressure Air Temp Water Temp Dewpoint Dewpoint Depression Visibility Wind Speed Wind Dir Waves Ship Positions

Myra Eckstein

Owner: Marquette Transportation Co. LLC, Paducah, KY. More information available from US FCC via Universal Licensing System and Coast Guard Vessel Documentation Center.

Last reported at 2017-Aug-15 11:07 UTC. Time now 2017-Aug-24 01:07 UTC.
Position N 32°50' W 091°09'.
Warning: this ship's position is 8 days out of date.

Length 47 m; draft 3 m.

Type: Towing. MMSI: 367505510.

Date/timePositionNaut miles runAvg speedWind from/ knotsBaromVisibWave heightAir tempDewpointWater temp
2017-Aug-15 11:07N 32°50' W 091°09'10 1.8
2017-Aug-15 05:56N 32°40' W 091°07'1 3.1
2017-Aug-15 05:30N 32°39' W 091°09'2 4.7
2017-Aug-15 05:00N 32°37' W 091°09'2 4.9
2017-Aug-15 04:30N 32°35' W 091°07'2 4.6
2017-Aug-15 04:00N 32°33' W 091°06'3 5.4
2017-Aug-15 03:30N 32°30' W 091°07'3 5.4
2017-Aug-15 03:00N 32°28' W 091°06'3 5.5
2017-Aug-15 02:30N 32°26' W 091°03'3 5.3
2017-Aug-15 02:00N 32°25' W 091°00'2 4.1
2017-Aug-15 01:30N 32°23' W 090°60'2 4.6
2017-Aug-15 01:00N 32°21' W 090°60'3 5.4
2017-Aug-15 00:30N 32°21' W 090°57'2 4.8
2017-Aug-15 00:00N 32°20' W 090°54'2 4.7
2017-Aug-14 23:30N 32°18' W 090°56'2 4.5
2017-Aug-14 23:00N 32°16' W 090°58'2 3.7
2017-Aug-14 22:30N 32°15' W 090°59'1 1.1
2017-Aug-14 22:00N 32°14' W 090°59'0 0.1
2017-Aug-14 21:30N 32°14' W 090°59'2 4.7
2017-Aug-14 21:00N 32°12' W 090°59'2 4.9
2017-Aug-14 20:30N 32°09' W 091°00'3 5.0
2017-Aug-14 20:00N 32°07' W 091°01'2 4.6
2017-Aug-14 19:30N 32°08' W 091°04'2 4.6
2017-Aug-14 19:00N 32°07' W 091°07'5 4.9
2017-Aug-14 18:00N 32°03' W 091°03'17 3.5
2017-Aug-14 13:16N 31°51' W 091°17'3 4.5
2017-Aug-14 12:34N 31°51' W 091°21'0 4.9
2017-Aug-14 12:30N 31°50' W 091°21'5 3.7
2017-Aug-14 11:09N 31°46' W 091°22'  
2017-Aug-07 14:18N 31°59' W 091°09'3 8.8
2017-Aug-07 14:00N 31°59' W 091°06'6 7.7
2017-Aug-07 13:17N 32°05' W 091°04'2 9.1
2017-Aug-07 13:00N 32°07' W 091°06'3 6.1
2017-Aug-07 12:30N 32°07' W 091°03'4 7.3
2017-Aug-07 12:00N 32°10' W 091°00'5 9.1
2017-Aug-07 11:30N 32°15' W 090°59'5 9.0
2017-Aug-07 11:00N 32°18' W 090°55'3 5.7
2017-Aug-07 10:30N 32°21' W 090°56'4 8.0
2017-Aug-07 10:00N 32°22' W 091°00'4 7.5
2017-Aug-07 09:30N 32°25' W 091°01'5 9.2
2017-Aug-07 09:00N 32°27' W 091°06'4 8.3
2017-Aug-07 08:30N 32°32' W 091°06'4 8.4
2017-Aug-07 08:00N 32°35' W 091°08'4 8.6
2017-Aug-07 07:30N 32°40' W 091°08'  
Track history (hours):
 
Tides and Currents Weather Stations Pressure Air Temp Water Temp Dewpoint Dewpoint Depression Visibility Wind Speed Wind Dir Waves Ship Positions

Myra Eckstein

Owner: Marquette Transportation Co. LLC, Paducah, KY. More information available from US FCC via Universal Licensing System and Coast Guard Vessel Documentation Center.

Last reported at 2017-Aug-15 11:07 UTC. Time now 2017-Aug-24 01:07 UTC.
Position N 32°50' W 091°09'.
Warning: this ship's position is 8 days out of date.

Length 47 m; draft 3 m.

Type: Towing. MMSI: 367505510.

Date/timePositionNaut miles runAvg speedWind from/ knotsBaromVisibWave heightAir tempDewpointWater temp
2017-Aug-15 11:07N 32°50' W 091°09'10 1.8
2017-Aug-15 05:56N 32°40' W 091°07'1 3.1
2017-Aug-15 05:30N 32°39' W 091°09'2 4.7
2017-Aug-15 05:00N 32°37' W 091°09'2 4.9
2017-Aug-15 04:30N 32°35' W 091°07'2 4.6
2017-Aug-15 04:00N 32°33' W 091°06'3 5.4
2017-Aug-15 03:30N 32°30' W 091°07'3 5.4
2017-Aug-15 03:00N 32°28' W 091°06'3 5.5
2017-Aug-15 02:30N 32°26' W 091°03'3 5.3
2017-Aug-15 02:00N 32°25' W 091°00'2 4.1
2017-Aug-15 01:30N 32°23' W 090°60'2 4.6
2017-Aug-15 01:00N 32°21' W 090°60'3 5.4
2017-Aug-15 00:30N 32°21' W 090°57'2 4.8
2017-Aug-15 00:00N 32°20' W 090°54'2 4.7
2017-Aug-14 23:30N 32°18' W 090°56'2 4.5
2017-Aug-14 23:00N 32°16' W 090°58'2 3.7
2017-Aug-14 22:30N 32°15' W 090°59'1 1.1
2017-Aug-14 22:00N 32°14' W 090°59'0 0.1
2017-Aug-14 21:30N 32°14' W 090°59'2 4.7
2017-Aug-14 21:00N 32°12' W 090°59'2 4.9
2017-Aug-14 20:30N 32°09' W 091°00'3 5.0
2017-Aug-14 20:00N 32°07' W 091°01'2 4.6
2017-Aug-14 19:30N 32°08' W 091°04'2 4.6
2017-Aug-14 19:00N 32°07' W 091°07'5 4.9
2017-Aug-14 18:00N 32°03' W 091°03'17 3.5
2017-Aug-14 13:16N 31°51' W 091°17'3 4.5
2017-Aug-14 12:34N 31°51' W 091°21'0 4.9
2017-Aug-14 12:30N 31°50' W 091°21'5 3.7
2017-Aug-14 11:09N 31°46' W 091°22'  
2017-Aug-07 14:18N 31°59' W 091°09'3 8.8
2017-Aug-07 14:00N 31°59' W 091°06'6 7.7
2017-Aug-07 13:17N 32°05' W 091°04'2 9.1
2017-Aug-07 13:00N 32°07' W 091°06'3 6.1
2017-Aug-07 12:30N 32°07' W 091°03'4 7.3
2017-Aug-07 12:00N 32°10' W 091°00'5 9.1
2017-Aug-07 11:30N 32°15' W 090°59'5 9.0
2017-Aug-07 11:00N 32°18' W 090°55'3 5.7
2017-Aug-07 10:30N 32°21' W 090°56'4 8.0
2017-Aug-07 10:00N 32°22' W 091°00'4 7.5
2017-Aug-07 09:30N 32°25' W 091°01'5 9.2
2017-Aug-07 09:00N 32°27' W 091°06'4 8.3
2017-Aug-07 08:30N 32°32' W 091°06'4 8.4
2017-Aug-07 08:00N 32°35' W 091°08'4 8.6
2017-Aug-07 07:30N 32°40' W 091°08'  

Dump ship's entire track history